Airfield :







YOU CAN JOIN US ON...

 
LOGIN :

Register | Disclaimer

   EN    FR    IT 

 









Legend :    VFR   Marginal VFR   IFR   Intensive IFR   Very Intensive IFR
Visi :
Ceiling :
>= 8 km
>= 3000ft
5 to 8 km
1000 to 3000 ft
1500m to 5 km
500 to 1000 ft
800 to 1500m
200 to 500 ft
< 800m
< 200 ft
Symbols :   Thunderstorms  Fog  Heavy snow  Heavy precipitations  Wind > 20 kt







- Airport Elevation : 160 ft
- IATA code : YYR


CYYR - Goose Bay

CURRENT METAR :
  • 211000Z 29011KT 15SM FEW035 05/02 A2997 RMK SC1 SLP152

EXPIRED METARs :
  • 210900Z 29011KT 15SM FEW080 FEW240 05/02 A2996 RMK AC1CI1 SLP146
  • 210800Z 29009KT 15SM FEW080 05/03 A2994 RMK AC1 SLP142

TAF TAF CYYR
Valid from the 21 at 06:00 until the 22 at 06:00 UTC


210530Z 2106/2206 31008KT P6SM SCT040
FM211200 30012KT P6SM BKN040
FM212100 30008KT P6SM FEW040 SCT160
FM220000 28005KT P6SM SCT080 SCT120
FM220300 26005KT P6SM BKN080 RMK NXT FCST BY 211200Z
No reported NOTAMs for that airfield.



MET'MAP, your aeronautical weather chart ! - Copyright ORBIFLY December 2007 - Disclaimer

ORBIFLY MET'MAP TEAM :

Programming & Development : Alexandra Zaïnal
Concept & Development : Baudouin d'Aumeries
Co-Development & Prog : Marc-Olivier Méhu
Technical & hardware support : Manuel Goepfert

Contact : metmap@orbifly.com




SOURCES & CREDITS :

   NOAA